Wednesday, September 17, 2014, 11:33 AM EDT

KNHK, Nas Patuxent River Md

Location: Patuxent River, MD, United States Lat: 38.3
Local Time: 11:33 AM EDT (15:33 GMT) Lon: -76.4
Time Zone: US/Eastern Elev: 39 ft

Show me the last for .
Show Decoded

2014-09-17 10:52 METAR KNHK 171452Z 08007KT 10SM FEW040 FEW250 22/12 A3005 RMK AO2 SLP175
                 T02220122 50001 $ =
2014-09-17 09:52 METAR KNHK 171352Z 08008KT 10SM FEW250 21/12 A3005 RMK AO2 SLP175 T02110117 $ =
2014-09-17 08:52 METAR KNHK 171252Z 08009KT 10SM FEW250 19/13 A3005 RMK AO2 SLP174 T01940128 =
2014-09-17 07:52 METAR KNHK 171152Z 07007KT 10SM FEW250 18/13 A3004 RMK AO2 SLP173 T01830133
                 10189 20150 53011 =
2014-09-17 06:52 METAR KNHK 171052Z 06004KT 10SM FEW010 FEW090 FEW250 17/14 A3003 RMK AO2 SLP169
                 T01670144 =
2014-09-17 05:52 METAR KNHK 170952Z 06004KT 10SM FEW010 FEW090 SCT250 17/14 A3002 RMK AO2 SLP166
                 T01670139 =
2014-09-17 05:03 METAR KNHK 170903Z 03006KT 10SM FEW090 17/14 A3001 RMK AO2 T01720139 =
2014-09-17 04:52 METAR KNHK 170852Z AUTO 03006KT 10SM BKN090 17/14 A3001 RMK AO2 SLP162 T01670139
                 56005 =
2014-09-17 03:52 METAR KNHK 170752Z AUTO 05004KT 10SM FEW080 17/13 A3001 RMK AO2 SLP162 T01670128
                 =
2014-09-17 02:52 METAR KNHK 170652Z AUTO 05005KT 10SM FEW080 17/12 A3002 RMK AO2 SLP164 T01720122
                 =
2014-09-17 01:52 METAR KNHK 170552Z AUTO 05007KT 10SM OVC085 19/12 A3003 RMK AO2 SLP168 T01890122
                 10206 20183 53005 =
2014-09-17 00:52 METAR KNHK 170452Z AUTO 05007KT 10SM SCT080 19/13 A3002 RMK AO2 SLP165 T01890128
                 402610178 =
2014-09-16 23:52 METAR KNHK 170352Z AUTO 03009KT 10SM CLR 19/12 A3001 RMK AO2 SLP164 T01940117 =
2014-09-16 22:52 METAR KNHK 170252Z 05007KT 10SM FEW090 19/13 A3001 RMK AO2 SLP162 T01890128
                 50007 =
2014-09-16 21:52 METAR KNHK 170152Z 05006KT 10SM FEW040 SCT090 20/12 A3001 RMK AO2 SLP164
                 T02000122 =
2014-09-16 20:52 METAR KNHK 170052Z 05006KT 10SM FEW041 FEW090 20/13 A3000 RMK AO2 SLP160
                 T02000128 =
2014-09-16 19:52 METAR KNHK 162352Z 35005KT 10SM FEW040 FEW095 21/12 A2999 RMK AO2 SLP155
                 T02060122 10261 20206 53005 =
2014-09-16 18:52 METAR KNHK 162252Z 36006KT 10SM FEW050 FEW100 22/12 A2998 RMK AO2 SLP152
                 T02220117 =
2014-09-16 17:52 METAR KNHK 162152Z 03009KT 10SM FEW050 FEW100 24/13 A2998 RMK AO2 SLP151
                 T02390128 =
2014-09-16 16:52 METAR KNHK 162052Z 33007KT 10SM SCT050 SCT110 26/12 A2997 RMK AO2 SLP150
                 T02560117 55003 =
2014-09-16 15:52 METAR KNHK 161952Z 01011KT 10SM SCT049 SCT080 25/13 A2997 RMK AO2 SLP150
                 T02500133 =
2014-09-16 14:52 METAR KNHK 161852Z 34011KT 10SM BKN050 BKN070 26/13 A2998 RMK AO2 SLP151
                 T02560133 =
2014-09-16 13:52 METAR KNHK 161752Z 33010KT 10SM BKN048 24/13 A2998 RMK AO2 SLP153 T02440133
                 10256 20194 57012 =
2014-09-16 12:52 METAR KNHK 161652Z 34013KT 10SM BKN042 24/13 A2999 RMK AO2 SLP156 T02390133 =
2014-09-16 11:52 METAR KNHK 161552Z 32012KT 10SM FEW049 SCT110 26/13 A3001 RMK AO2 SLP161
                 T02560133 =

Support USWX by starting your Amazon purchase here.